Time;durP1;ratioP1;P1;durP2;ratioP2;P2;SDS_P1;SDS_P2;PMS_P1;PMS_P2;Temp;Humidity;BMP_temperature;BMP_pressure;BME280_temperature;BME280_humidity;BME280_pressure;Samples;Min_cycle;Max_cycle;Signal;HPM_P1;HPM_P2
2021/05/27 00:00:30;;;;;;;5.07;2.90;;;;;;;;;;5051494;28;20016;-66
2021/05/27 00:02:56;;;;;;;5.05;2.83;;;;;;;;;;5052402;28;20025;-66
2021/05/27 00:05:22;;;;;;;3.30;2.28;;;;;;;;;;5051416;28;20566;-66
2021/05/27 00:07:48;;;;;;;5.05;2.35;;;;;;;;;;5052483;28;20071;-66
2021/05/27 00:10:16;;;;;;;2.83;2.60;;;;;;;;;;5051820;28;20025;-66
2021/05/27 00:12:43;;;;;;;3.20;2.20;;;;;;;;;;5052442;28;20060;-66
2021/05/27 00:15:09;;;;;;;5.03;2.13;;;;;;;;;;5052505;28;20021;-66
2021/05/27 00:17:35;;;;;;;4.68;2.92;;;;;;;;;;5051554;28;20758;-66
2021/05/27 00:20:01;;;;;;;4.10;2.65;;;;;;;;;;5052045;28;20025;-66
2021/05/27 00:22:28;;;;;;;2.65;2.45;;;;;;;;;;5051196;28;20028;-66
2021/05/27 00:24:54;;;;;;;1.70;1.52;;;;;;;;;;5052392;28;20048;-66
2021/05/27 00:27:22;;;;;;;3.17;1.75;;;;;;;;;;5051324;28;20123;-66
2021/05/27 00:29:48;;;;;;;2.97;2.25;;;;;;;;;;5051363;28;20036;-66
2021/05/27 00:32:14;;;;;;;2.92;2.45;;;;;;;;;;5051712;28;20116;-66
2021/05/27 00:34:40;;;;;;;3.13;2.08;;;;;;;;;;5051186;28;20407;-66
2021/05/27 00:37:06;;;;;;;2.65;2.00;;;;;;;;;;5051985;28;20032;-66
2021/05/27 00:39:32;;;;;;;2.90;1.90;;;;;;;;;;5050640;28;20545;-66
2021/05/27 00:41:58;;;;;;;2.30;1.90;;;;;;;;;;5051952;28;20430;-66
2021/05/27 00:44:24;;;;;;;2.67;1.90;;;;;;;;;;5051262;28;20057;-66
2021/05/27 00:46:51;;;;;;;7.50;2.85;;;;;;;;;;5051863;28;20079;-66
2021/05/27 00:49:17;;;;;;;5.80;2.08;;;;;;;;;;5050233;28;20031;-66
2021/05/27 00:51:44;;;;;;;2.58;1.90;;;;;;;;;;5051509;28;20467;-66
2021/05/27 00:54:10;;;;;;;4.97;2.22;;;;;;;;;;5051590;28;20041;-66
2021/05/27 00:56:37;;;;;;;2.22;2.03;;;;;;;;;;5051329;28;20463;-66
2021/05/27 00:59:03;;;;;;;5.57;2.13;;;;;;;;;;5049779;28;20509;-66
2021/05/27 01:01:30;;;;;;;3.28;2.03;;;;;;;;;;5050577;28;20013;-66
2021/05/27 01:03:56;;;;;;;6.97;2.97;;;;;;;;;;5050811;28;20029;-66
2021/05/27 01:06:22;;;;;;;2.40;2.10;;;;;;;;;;5050733;28;20040;-66
2021/05/27 01:08:48;;;;;;;4.82;2.47;;;;;;;;;;5051082;28;20032;-66
2021/05/27 01:11:17;;;;;;;7.35;2.25;;;;;;;;;;5050646;28;20036;-66
2021/05/27 01:13:44;;;;;;;4.32;2.83;;;;;;;;;;5051149;28;20107;-66
2021/05/27 01:16:14;;;;;;;4.63;2.30;;;;;;;;;;5051194;28;20029;-66
2021/05/27 01:18:40;;;;;;;4.40;2.55;;;;;;;;;;5050713;28;20033;-66
2021/05/27 01:21:07;;;;;;;4.07;2.55;;;;;;;;;;5050906;28;20060;-66
2021/05/27 01:23:33;;;;;;;2.08;1.83;;;;;;;;;;5050390;28;20432;-66
2021/05/27 01:25:59;;;;;;;2.33;1.88;;;;;;;;;;5050741;28;20072;-66
2021/05/27 01:28:30;;;;;;;3.05;2.00;;;;;;;;;;5049844;28;20108;-66
2021/05/27 01:30:56;;;;;;;3.03;2.53;;;;;;;;;;5050467;28;20036;-65
2021/05/27 01:33:23;;;;;;;3.63;2.20;;;;;;;;;;5050340;28;20542;-66
2021/05/27 01:35:49;;;;;;;4.70;2.17;;;;;;;;;;5050512;28;20127;-66
2021/05/27 01:38:16;;;;;;;2.80;2.40;;;;;;;;;;5050247;28;20048;-66
2021/05/27 01:40:43;;;;;;;2.53;2.30;;;;;;;;;;5050122;28;20445;-66
2021/05/27 01:43:09;;;;;;;4.65;2.92;;;;;;;;;;5050921;28;20408;-66
2021/05/27 01:45:36;;;;;;;3.70;2.38;;;;;;;;;;5049854;28;20120;-65
2021/05/27 01:48:03;;;;;;;2.45;2.05;;;;;;;;;;5050553;28;20392;-66
2021/05/27 01:50:29;;;;;;;3.50;2.42;;;;;;;;;;5049579;28;20025;-66
2021/05/27 01:52:56;;;;;;;3.65;2.53;;;;;;;;;;5050664;28;20086;-66
2021/05/27 01:55:22;;;;;;;3.75;1.92;;;;;;;;;;5049738;28;20471;-66
2021/05/27 01:57:48;;;;;;;2.45;2.20;;;;;;;;;;5050671;28;20032;-66
2021/05/27 02:00:15;;;;;;;4.30;2.33;;;;;;;;;;5049612;28;20472;-66
2021/05/27 02:02:41;;;;;;;2.72;2.42;;;;;;;;;;5049917;28;20609;-65
2021/05/27 02:05:07;;;;;;;2.35;1.90;;;;;;;;;;5050182;28;20060;-65
2021/05/27 02:07:33;;;;;;;3.65;2.38;;;;;;;;;;5049533;28;20040;-66
2021/05/27 02:09:59;;;;;;;2.85;1.98;;;;;;;;;;5049523;28;20106;-66
2021/05/27 02:12:25;;;;;;;9.65;3.10;;;;;;;;;;5049741;28;20116;-65
2021/05/27 02:14:51;;;;;;;5.43;2.90;;;;;;;;;;5050092;28;20400;-66
2021/05/27 02:17:17;;;;;;;3.75;2.22;;;;;;;;;;5050059;28;20466;-66
2021/05/27 02:19:43;;;;;;;2.22;1.98;;;;;;;;;;5049764;28;20025;-66
2021/05/27 02:22:09;;;;;;;4.22;2.33;;;;;;;;;;5050107;28;20107;-66
2021/05/27 02:24:36;;;;;;;2.70;1.98;;;;;;;;;;5049476;28;20045;-66
2021/05/27 02:27:02;;;;;;;3.72;2.00;;;;;;;;;;5049955;28;20480;-66
2021/05/27 02:29:28;;;;;;;3.70;2.13;;;;;;;;;;5048506;28;20021;-66
2021/05/27 02:31:54;;;;;;;3.20;2.03;;;;;;;;;;5050442;28;20029;-66
2021/05/27 02:34:20;;;;;;;3.28;2.22;;;;;;;;;;5049102;28;20422;-65
2021/05/27 02:36:46;;;;;;;3.00;2.25;;;;;;;;;;5050039;28;20029;-65
2021/05/27 02:39:12;;;;;;;4.45;2.53;;;;;;;;;;5049755;28;20021;-66
2021/05/27 02:41:38;;;;;;;5.18;1.88;;;;;;;;;;5049664;28;20033;-65
2021/05/27 02:44:05;;;;;;;3.25;2.30;;;;;;;;;;5049892;28;20033;-66
2021/05/27 02:46:31;;;;;;;3.95;2.72;;;;;;;;;;5049087;28;20039;-66
2021/05/27 02:48:57;;;;;;;4.28;2.33;;;;;;;;;;5049945;28;20401;-65
2021/05/27 02:51:23;;;;;;;2.65;1.70;;;;;;;;;;5049225;28;20091;-65
2021/05/27 02:53:49;;;;;;;3.70;2.60;;;;;;;;;;5049866;28;20029;-65
2021/05/27 02:56:15;;;;;;;2.65;2.05;;;;;;;;;;5049316;28;20052;-65
2021/05/27 02:58:41;;;;;;;4.22;2.20;;;;;;;;;;5049084;28;20094;-66
2021/05/27 03:01:07;;;;;;;2.38;2.13;;;;;;;;;;5049297;28;20067;-66
2021/05/27 03:03:33;;;;;;;7.13;2.30;;;;;;;;;;5049074;28;20039;-66
2021/05/27 03:05:59;;;;;;;2.60;2.13;;;;;;;;;;5049504;28;20044;-65
2021/05/27 03:08:27;;;;;;;3.47;2.40;;;;;;;;;;5048745;28;20033;-65
2021/05/27 03:10:53;;;;;;;3.70;2.35;;;;;;;;;;5049204;28;20037;-65
2021/05/27 03:13:19;;;;;;;3.50;2.17;;;;;;;;;;5049121;28;20063;-65
2021/05/27 03:15:45;;;;;;;2.50;1.85;;;;;;;;;;5049569;28;20090;-65
2021/05/27 03:18:12;;;;;;;3.70;2.58;;;;;;;;;;5049451;28;20525;-65
2021/05/27 03:20:38;;;;;;;2.63;2.30;;;;;;;;;;5049115;28;20040;-65
2021/05/27 03:23:05;;;;;;;3.60;2.53;;;;;;;;;;5051785;28;20021;-65
2021/05/27 03:25:32;;;;;;;2.50;2.30;;;;;;;;;;5052607;28;20033;-66
2021/05/27 03:27:58;;;;;;;2.78;1.85;;;;;;;;;;5052903;28;20025;-65
2021/05/27 03:30:24;;;;;;;2.58;2.10;;;;;;;;;;5052446;28;20479;-65
2021/05/27 03:32:51;;;;;;;3.90;2.17;;;;;;;;;;5053319;28;20036;-65
2021/05/27 03:35:17;;;;;;;2.22;2.03;;;;;;;;;;5052518;28;20057;-66
2021/05/27 03:37:43;;;;;;;4.03;1.48;;;;;;;;;;5053120;28;20126;-65
2021/05/27 03:40:13;;;;;;;4.57;2.50;;;;;;;;;;5052411;28;20033;-65
2021/05/27 03:42:49;;;;;;;2.85;2.38;;;;;;;;;;5052793;28;20450;-65
2021/05/27 03:45:23;;;;;;;4.53;2.78;;;;;;;;;;5052417;28;20487;-66
2021/05/27 03:47:49;;;;;;;3.53;1.70;;;;;;;;;;5052461;28;20029;-65
2021/05/27 03:50:17;;;;;;;1.85;1.70;;;;;;;;;;5051549;28;20044;-65
2021/05/27 03:52:44;;;;;;;2.53;1.95;;;;;;;;;;5052951;28;20083;-66
2021/05/27 03:55:11;;;;;;;3.03;2.28;;;;;;;;;;5052839;28;20025;-65
2021/05/27 03:57:37;;;;;;;3.33;2.20;;;;;;;;;;5052090;28;20094;-65
2021/05/27 04:02:50;;;;;;;3.30;2.33;;;;;;;;;;5053121;28;20072;-65
2021/05/27 04:08:01;;;;;;;2.35;2.10;;;;;;;;;;5052489;28;20036;-65
2021/05/27 04:10:27;;;;;;;2.60;1.90;;;;;;;;;;5051163;28;20025;-65
2021/05/27 04:12:54;;;;;;;3.25;2.95;;;;;;;;;;5052780;28;20117;-65
2021/05/27 04:18:10;;;;;;;3.08;2.20;;;;;;;;;;5052342;28;20240;-65
2021/05/27 04:20:41;;;;;;;8.50;3.03;;;;;;;;;;5051385;28;20045;-65
2021/05/27 04:23:08;;;;;;;3.20;1.50;;;;;;;;;;5052393;28;20124;-65
2021/05/27 04:25:34;;;;;;;4.60;2.25;;;;;;;;;;5051429;28;20103;-65
2021/05/27 04:28:01;;;;;;;2.53;2.03;;;;;;;;;;5051817;28;20518;-65
2021/05/27 04:30:28;;;;;;;2.38;2.10;;;;;;;;;;5050772;28;20024;-65
2021/05/27 04:33:07;;;;;;;2.45;2.13;;;;;;;;;;5051943;28;20460;-65
2021/05/27 04:35:35;;;;;;;2.90;2.00;;;;;;;;;;5050962;28;20519;-66
2021/05/27 04:38:03;;;;;;;3.15;1.98;;;;;;;;;;5051825;28;20049;-65
2021/05/27 04:40:29;;;;;;;3.63;2.20;;;;;;;;;;5050591;28;20053;-65
2021/05/27 04:42:56;;;;;;;3.35;2.17;;;;;;;;;;5051725;28;20033;-65
2021/05/27 04:45:22;;;;;;;2.85;1.88;;;;;;;;;;5051388;28;20511;-65
2021/05/27 04:47:48;;;;;;;5.40;2.38;;;;;;;;;;5051669;28;20025;-65
2021/05/27 04:50:14;;;;;;;4.75;2.58;;;;;;;;;;5051142;28;20029;-65
2021/05/27 04:52:40;;;;;;;2.90;2.70;;;;;;;;;;5051337;28;20213;-65
2021/05/27 04:55:07;;;;;;;3.28;2.38;;;;;;;;;;5051942;28;20029;-65
2021/05/27 04:57:33;;;;;;;1.65;1.55;;;;;;;;;;5050860;28;20037;-65
2021/05/27 05:00:00;;;;;;;2.60;2.40;;;;;;;;;;5051052;28;20086;-65
2021/05/27 05:02:26;;;;;;;3.17;1.90;;;;;;;;;;5050747;28;20041;-66
2021/05/27 05:04:52;;;;;;;2.75;1.83;;;;;;;;;;5051024;28;20072;-66
2021/05/27 05:07:18;;;;;;;7.20;1.92;;;;;;;;;;5050933;28;20025;-66
2021/05/27 05:09:45;;;;;;;1.83;1.73;;;;;;;;;;5050537;28;20021;-66
2021/05/27 05:12:11;;;;;;;3.47;2.80;;;;;;;;;;5051197;28;20064;-65
2021/05/27 05:14:37;;;;;;;2.08;1.83;;;;;;;;;;5050616;28;20487;-65
2021/05/27 05:17:03;;;;;;;2.38;1.88;;;;;;;;;;5051422;28;20408;-66
2021/05/27 05:19:29;;;;;;;6.43;3.95;;;;;;;;;;5049746;28;20488;-65
2021/05/27 05:21:57;;;;;;;3.28;2.22;;;;;;;;;;5051222;28;20111;-65
2021/05/27 05:24:23;;;;;;;3.20;2.00;;;;;;;;;;5050133;28;20064;-65
2021/05/27 05:26:49;;;;;;;2.97;2.35;;;;;;;;;;5051169;28;20392;-65
2021/05/27 05:29:15;;;;;;;2.17;1.98;;;;;;;;;;5050421;28;20108;-65
2021/05/27 05:31:41;;;;;;;1.92;1.63;;;;;;;;;;5050514;28;20029;-65
2021/05/27 05:34:07;;;;;;;3.10;1.38;;;;;;;;;;5050428;28;20057;-65
2021/05/27 05:36:33;;;;;;;2.80;1.50;;;;;;;;;;5050351;28;20118;-65
2021/05/27 05:38:59;;;;;;;2.97;2.28;;;;;;;;;;5050335;28;20039;-65
2021/05/27 05:41:25;;;;;;;3.17;1.80;;;;;;;;;;5049863;28;20446;-65
2021/05/27 05:43:51;;;;;;;4.70;2.40;;;;;;;;;;5050522;28;20025;-65
2021/05/27 05:46:17;;;;;;;2.40;1.88;;;;;;;;;;5049623;28;20028;-65
2021/05/27 05:48:43;;;;;;;5.13;2.47;;;;;;;;;;5050136;28;20118;-65
2021/05/27 05:51:09;;;;;;;7.28;2.90;;;;;;;;;;5050585;28;20560;-65
2021/05/27 05:53:37;;;;;;;5.22;3.50;;;;;;;;;;5050240;28;20093;-65
2021/05/27 05:56:04;;;;;;;4.43;2.70;;;;;;;;;;5050507;28;20382;-65
2021/05/27 05:58:30;;;;;;;3.42;3.03;;;;;;;;;;5046081;28;20060;-65
2021/05/27 06:00:56;;;;;;;3.33;2.35;;;;;;;;;;5046676;28;20033;-65
2021/05/27 06:03:23;;;;;;;4.32;2.30;;;;;;;;;;5048537;28;20043;-65
2021/05/27 06:05:49;;;;;;;3.75;3.17;;;;;;;;;;5047182;28;20078;-65
2021/05/27 06:08:16;;;;;;;4.53;2.10;;;;;;;;;;5044240;28;20034;-66
2021/05/27 06:10:42;;;;;;;2.90;2.60;;;;;;;;;;5042268;28;20029;-65
2021/05/27 06:13:08;;;;;;;3.03;2.67;;;;;;;;;;5049627;28;20078;-65
2021/05/27 06:15:34;;;;;;;6.85;2.47;;;;;;;;;;5047810;28;20021;-65
2021/05/27 06:18:01;;;;;;;4.93;2.15;;;;;;;;;;5047153;28;20029;-65
2021/05/27 06:20:28;;;;;;;5.95;3.15;;;;;;;;;;5042912;28;20056;-65
2021/05/27 06:22:55;;;;;;;5.15;2.53;;;;;;;;;;5043678;28;20049;-67
2021/05/27 06:25:22;;;;;;;5.07;2.83;;;;;;;;;;5048041;28;20462;-67
2021/05/27 06:27:48;;;;;;;4.57;3.42;;;;;;;;;;5049292;28;20040;-67
2021/05/27 06:30:14;;;;;;;6.03;3.10;;;;;;;;;;5048658;28;20029;-67
2021/05/27 06:32:41;;;;;;;6.45;3.15;;;;;;;;;;5046396;28;20033;-67
2021/05/27 06:35:08;;;;;;;3.67;2.38;;;;;;;;;;5046932;28;20056;-67
2021/05/27 06:37:39;;;;;;;4.57;2.75;;;;;;;;;;5045003;28;20029;-65
2021/05/27 06:40:06;;;;;;;2.38;2.10;;;;;;;;;;5047589;28;20116;-65
2021/05/27 06:42:32;;;;;;;11.77;2.92;;;;;;;;;;5046456;28;20450;-66
2021/05/27 06:44:58;;;;;;;8.23;2.70;;;;;;;;;;5035280;28;20046;-72
2021/05/27 06:47:24;;;;;;;10.02;3.63;;;;;;;;;;5039011;28;20200;-66
2021/05/27 06:49:50;;;;;;;3.10;2.42;;;;;;;;;;5049363;28;20028;-67
2021/05/27 06:52:16;;;;;;;6.97;3.60;;;;;;;;;;5048252;28;20100;-67
2021/05/27 06:54:42;;;;;;;4.75;2.80;;;;;;;;;;5049002;28;20467;-67
2021/05/27 06:57:09;;;;;;;3.17;2.40;;;;;;;;;;5051619;28;20048;-67
2021/05/27 06:59:35;;;;;;;5.20;2.50;;;;;;;;;;5051590;28;20033;-67
2021/05/27 07:02:01;;;;;;;8.50;3.22;;;;;;;;;;5052951;28;20089;-67
2021/05/27 07:04:27;;;;;;;9.00;3.40;;;;;;;;;;5040260;28;20056;-67
2021/05/27 07:06:53;;;;;;;6.20;1.85;;;;;;;;;;5046878;28;20075;-67
2021/05/27 07:09:20;;;;;;;5.00;2.63;;;;;;;;;;5045177;28;20473;-67
2021/05/27 07:11:46;;;;;;;5.05;2.95;;;;;;;;;;5046596;28;20037;-67
2021/05/27 07:14:12;;;;;;;7.78;3.25;;;;;;;;;;5044383;28;20044;-67
2021/05/27 07:16:38;;;;;;;5.38;3.42;;;;;;;;;;5044608;28;20082;-68
2021/05/27 07:19:04;;;;;;;4.25;2.50;;;;;;;;;;5046071;28;20116;-68
2021/05/27 07:21:30;;;;;;;4.90;3.20;;;;;;;;;;5045708;28;20032;-72
2021/05/27 07:23:57;;;;;;;6.90;2.67;;;;;;;;;;5044825;28;20400;-68
2021/05/27 07:26:24;;;;;;;2.92;2.60;;;;;;;;;;5045553;28;20164;-68
2021/05/27 07:28:50;;;;;;;9.15;3.30;;;;;;;;;;5046301;28;20029;-68
2021/05/27 07:31:16;;;;;;;6.00;2.67;;;;;;;;;;5044462;28;20048;-68
2021/05/27 07:33:42;;;;;;;4.55;3.55;;;;;;;;;;5044965;28;20037;-68
2021/05/27 07:36:09;;;;;;;5.72;2.28;;;;;;;;;;5045905;28;20021;-68
2021/05/27 07:38:35;;;;;;;2.65;1.90;;;;;;;;;;5045560;28;20033;-68
2021/05/27 07:41:01;;;;;;;6.60;3.22;;;;;;;;;;5045180;28;20037;-66
2021/05/27 07:43:27;;;;;;;4.10;2.30;;;;;;;;;;5043654;28;20037;-71
2021/05/27 07:45:53;;;;;;;4.50;2.75;;;;;;;;;;5043054;28;20116;-67
2021/05/27 07:48:19;;;;;;;5.28;2.42;;;;;;;;;;5043280;28;20460;-67
2021/05/27 07:50:45;;;;;;;5.43;3.00;;;;;;;;;;5044311;28;20017;-66
2021/05/27 07:53:16;;;;;;;6.07;2.55;;;;;;;;;;5046877;28;20035;-67
2021/05/27 07:55:42;;;;;;;4.07;2.33;;;;;;;;;;5044163;28;20051;-67
2021/05/27 07:58:08;;;;;;;4.85;2.42;;;;;;;;;;5045494;28;20032;-67
2021/05/27 08:00:34;;;;;;;4.13;2.72;;;;;;;;;;5043624;28;20591;-67
2021/05/27 08:03:00;;;;;;;6.10;2.67;;;;;;;;;;5046050;28;20052;-67
2021/05/27 08:05:27;;;;;;;2.40;2.13;;;;;;;;;;5042221;28;21767;-71
2021/05/27 08:07:54;;;;;;;5.22;1.92;;;;;;;;;;5037262;28;20021;-67
2021/05/27 08:10:20;;;;;;;2.78;2.28;;;;;;;;;;5044073;28;20057;-67
2021/05/27 08:12:46;;;;;;;2.92;2.17;;;;;;;;;;5043925;28;20083;-67
2021/05/27 08:15:13;;;;;;;5.82;3.15;;;;;;;;;;5040555;28;20025;-66
2021/05/27 08:17:39;;;;;;;2.67;1.75;;;;;;;;;;5044497;28;20047;-67
2021/05/27 08:20:06;;;;;;;2.85;1.67;;;;;;;;;;5045894;28;20029;-66
2021/05/27 08:22:33;;;;;;;11.90;3.72;;;;;;;;;;5044108;28;20220;-67
2021/05/27 08:24:59;;;;;;;4.10;2.08;;;;;;;;;;5044122;28;20048;-67
2021/05/27 08:27:25;;;;;;;4.05;2.65;;;;;;;;;;5044600;28;20036;-66
2021/05/27 08:29:51;;;;;;;3.38;1.80;;;;;;;;;;5045465;28;20404;-66
2021/05/27 08:32:17;;;;;;;2.28;2.00;;;;;;;;;;5044561;28;20064;-72
2021/05/27 08:34:43;;;;;;;8.93;2.72;;;;;;;;;;5043516;28;20049;-66
2021/05/27 08:37:09;;;;;;;4.50;2.08;;;;;;;;;;5045893;28;20119;-66
2021/05/27 08:39:35;;;;;;;5.43;2.42;;;;;;;;;;5044321;28;20033;-67
2021/05/27 08:42:01;;;;;;;9.20;2.45;;;;;;;;;;5045079;28;20033;-68
2021/05/27 08:44:28;;;;;;;3.50;1.90;;;;;;;;;;5042248;28;20036;-67
2021/05/27 08:46:54;;;;;;;2.38;1.83;;;;;;;;;;5045286;28;20025;-67
2021/05/27 08:49:20;;;;;;;6.85;2.10;;;;;;;;;;5043714;28;20107;-67
2021/05/27 08:51:46;;;;;;;4.78;2.22;;;;;;;;;;5043161;28;20475;-66
2021/05/27 08:54:12;;;;;;;10.05;3.00;;;;;;;;;;5041996;28;20025;-67
2021/05/27 08:56:39;;;;;;;5.88;2.28;;;;;;;;;;5044521;28;20152;-66
2021/05/27 08:59:05;;;;;;;3.13;2.22;;;;;;;;;;5044718;28;20060;-66
2021/05/27 09:01:31;;;;;;;3.65;2.47;;;;;;;;;;5043871;28;20057;-66
2021/05/27 09:03:57;;;;;;;6.53;2.80;;;;;;;;;;5042057;28;20032;-67
2021/05/27 09:06:24;;;;;;;4.70;2.88;;;;;;;;;;5038588;28;20029;-66
2021/05/27 09:09:03;;;;;;;5.45;2.42;;;;;;;;;;5042692;28;20122;-67
2021/05/27 09:11:36;;;;;;;3.92;2.58;;;;;;;;;;5043405;28;20061;-66
2021/05/27 09:14:03;;;;;;;2.28;1.92;;;;;;;;;;5042360;28;20407;-66
2021/05/27 09:16:29;;;;;;;3.00;1.75;;;;;;;;;;5043191;28;20488;-67
2021/05/27 09:18:55;;;;;;;4.90;2.00;;;;;;;;;;5043623;28;20171;-66
2021/05/27 09:21:37;;;;;;;3.55;1.92;;;;;;;;;;5041123;28;20025;-67
2021/05/27 09:24:04;;;;;;;5.22;1.90;;;;;;;;;;5042104;28;20037;-67
2021/05/27 09:26:30;;;;;;;6.07;2.03;;;;;;;;;;5030948;28;20088;-67
2021/05/27 09:29:12;;;;;;;2.60;2.15;;;;;;;;;;5042842;28;20095;-66
2021/05/27 09:31:57;;;;;;;4.20;1.95;;;;;;;;;;5035177;28;20502;-66
2021/05/27 09:34:39;;;;;;;5.38;2.10;;;;;;;;;;5040322;28;20053;-66
2021/05/27 09:37:05;;;;;;;6.47;2.63;;;;;;;;;;5038000;28;20222;-66
2021/05/27 09:39:40;;;;;;;5.57;2.75;;;;;;;;;;5045963;28;20097;-66
2021/05/27 09:42:14;;;;;;;5.68;2.75;;;;;;;;;;5059004;28;20468;-68
2021/05/27 09:44:40;;;;;;;3.95;2.90;;;;;;;;;;5057613;28;20041;-66
2021/05/27 09:47:06;;;;;;;9.82;2.90;;;;;;;;;;5058922;28;20033;-67
2021/05/27 09:49:33;;;;;;;7.25;2.80;;;;;;;;;;5058155;28;20167;-71
2021/05/27 09:52:13;;;;;;;8.40;3.20;;;;;;;;;;5058654;28;20037;-67
2021/05/27 09:54:51;;;;;;;6.55;2.58;;;;;;;;;;5056868;28;20025;-67
2021/05/27 09:57:21;;;;;;;4.65;3.20;;;;;;;;;;5059174;28;20170;-67
2021/05/27 09:59:47;;;;;;;5.45;2.90;;;;;;;;;;5059041;28;20055;-66
2021/05/27 10:02:13;;;;;;;6.20;2.97;;;;;;;;;;5057957;28;20040;-66
2021/05/27 10:04:54;;;;;;;6.57;3.15;;;;;;;;;;5053341;28;20032;-67
2021/05/27 10:07:33;;;;;;;4.25;2.70;;;;;;;;;;5058039;28;20025;-67
2021/05/27 10:09:59;;;;;;;4.38;3.00;;;;;;;;;;5057599;28;20031;-71
2021/05/27 10:12:25;;;;;;;4.70;1.92;;;;;;;;;;5058369;28;20041;-67
2021/05/27 10:14:52;;;;;;;5.40;3.10;;;;;;;;;;5057911;28;20032;-67
2021/05/27 10:17:18;;;;;;;5.50;3.45;;;;;;;;;;5059329;28;20446;-68
2021/05/27 10:19:44;;;;;;;2.03;1.85;;;;;;;;;;5059431;28;20543;-67
2021/05/27 10:22:10;;;;;;;7.72;2.45;;;;;;;;;;5059167;28;20111;-66
2021/05/27 10:24:36;;;;;;;4.72;2.50;;;;;;;;;;5056673;28;20029;-67
2021/05/27 10:27:02;;;;;;;2.92;2.03;;;;;;;;;;5059613;28;20037;-68
2021/05/27 10:29:29;;;;;;;5.40;2.53;;;;;;;;;;5057861;28;20037;-67
2021/05/27 10:31:55;;;;;;;2.00;1.88;;;;;;;;;;5058372;28;20033;-67
2021/05/27 10:34:40;;;;;;;4.72;2.35;;;;;;;;;;5046982;28;20075;-67
2021/05/27 10:37:06;;;;;;;4.43;1.70;;;;;;;;;;5054620;28;20040;-67
2021/05/27 10:39:33;;;;;;;2.83;1.80;;;;;;;;;;5053165;28;20165;-67
2021/05/27 10:41:59;;;;;;;3.22;1.80;;;;;;;;;;5053236;28;20057;-67
2021/05/27 10:44:26;;;;;;;3.58;2.38;;;;;;;;;;5049594;28;20585;-67
2021/05/27 10:46:52;;;;;;;5.63;2.33;;;;;;;;;;5040094;28;20029;-67
2021/05/27 10:49:37;;;;;;;2.53;2.33;;;;;;;;;;5050001;28;20028;-67
2021/05/27 10:52:22;;;;;;;2.17;1.75;;;;;;;;;;5049138;28;20029;-67
2021/05/27 10:54:48;;;;;;;3.00;1.50;;;;;;;;;;5035314;28;20021;-67
2021/05/27 10:57:35;;;;;;;3.45;2.40;;;;;;;;;;5039471;28;20712;-67
2021/05/27 11:00:01;;;;;;;2.15;1.67;;;;;;;;;;5036445;28;20033;-67
2021/05/27 11:02:27;;;;;;;4.70;1.83;;;;;;;;;;5027305;28;20045;-67
2021/05/27 11:05:13;;;;;;;2.25;1.55;;;;;;;;;;5029225;28;20017;-67
2021/05/27 11:07:39;;;;;;;4.28;1.65;;;;;;;;;;5024446;28;20028;-67
2021/05/27 11:10:25;;;;;;;3.03;1.80;;;;;;;;;;5037127;28;20036;-67
2021/05/27 11:13:05;;;;;;;10.00;2.72;;;;;;;;;;5031030;28;20083;-67
2021/05/27 11:15:31;;;;;;;2.22;1.50;;;;;;;;;;5027983;28;20175;-67
2021/05/27 11:18:05;;;;;;;1.88;1.65;;;;;;;;;;5028465;28;20040;-67
2021/05/27 11:20:32;;;;;;;;;;;;;;;;;;5028008;28;20017;-67
2021/05/27 11:23:15;;;;;;;4.97;2.05;;;;;;;;;;5027854;28;19905;-67
2021/05/27 11:25:41;;;;;;;1.53;1.33;;;;;;;;;;5044522;28;20055;-67
2021/05/27 11:28:11;;;;;;;2.90;1.50;;;;;;;;;;5047731;28;20159;-66
2021/05/27 11:30:40;;;;;;;3.25;1.95;;;;;;;;;;5044303;28;20033;-67
2021/05/27 11:33:13;;;;;;;5.57;1.70;;;;;;;;;;5045019;28;20446;-67
2021/05/27 11:35:41;;;;;;;2.40;2.17;;;;;;;;;;5031096;28;20790;-67
2021/05/27 11:38:12;;;;;;;8.45;2.53;;;;;;;;;;5044944;28;20037;-67
2021/05/27 11:40:40;;;;;;;7.38;2.40;;;;;;;;;;5044805;28;20102;-67
2021/05/27 11:43:06;;;;;;;9.20;2.65;;;;;;;;;;5044592;28;20025;-66
2021/05/27 11:45:46;;;;;;;2.65;1.50;;;;;;;;;;5032884;28;20120;-67
2021/05/27 11:50:52;;;;;;;2.90;2.17;;;;;;;;;;5044859;28;20090;-67
2021/05/27 11:53:21;;;;;;;3.20;2.38;;;;;;;;;;5047391;28;20040;-67
2021/05/27 11:55:54;;;;;;;4.90;3.00;;;;;;;;;;5048478;28;20029;-67
2021/05/27 11:58:41;;;;;;;3.72;1.55;;;;;;;;;;5045722;28;20029;-67
2021/05/27 12:01:14;;;;;;;3.78;1.67;;;;;;;;;;5046727;28;20102;-67
2021/05/27 12:03:40;;;;;;;10.50;2.47;;;;;;;;;;5040531;28;20822;-66
2021/05/27 12:06:06;;;;;;;5.40;2.92;;;;;;;;;;5026168;28;20059;-67
2021/05/27 12:08:42;;;;;;;6.70;2.47;;;;;;;;;;5029990;28;20593;-71
2021/05/27 12:11:09;;;;;;;4.63;1.92;;;;;;;;;;5033677;28;20037;-67
2021/05/27 12:13:36;;;;;;;4.45;2.50;;;;;;;;;;5037998;28;20156;-69
2021/05/27 12:16:02;;;;;;;2.72;1.90;;;;;;;;;;5035890;28;20108;-67
2021/05/27 12:18:28;;;;;;;8.05;2.53;;;;;;;;;;5034850;28;20028;-67
2021/05/27 12:20:54;;;;;;;5.90;1.75;;;;;;;;;;5037128;28;20053;-67
2021/05/27 12:23:21;;;;;;;5.90;2.55;;;;;;;;;;5038726;28;20025;-67
2021/05/27 12:25:48;;;;;;;4.72;2.13;;;;;;;;;;5038477;28;20056;-67
2021/05/27 12:28:21;;;;;;;3.95;3.53;;;;;;;;;;5038022;28;20110;-67
2021/05/27 12:30:54;;;;;;;2.85;2.25;;;;;;;;;;5037981;28;20576;-68
2021/05/27 12:33:21;;;;;;;4.07;2.50;;;;;;;;;;5036769;28;20025;-67
2021/05/27 12:35:48;;;;;;;3.85;2.13;;;;;;;;;;5039163;28;20694;-67
2021/05/27 12:38:21;;;;;;;3.40;2.65;;;;;;;;;;5038384;28;20029;-68
2021/05/27 12:40:48;;;;;;;4.50;1.73;;;;;;;;;;5034595;28;20093;-67
2021/05/27 12:43:32;;;;;;;1.95;1.65;;;;;;;;;;5031798;28;20603;-72
2021/05/27 12:45:58;;;;;;;;;;;;;;;;;;5039195;28;20051;-67
2021/05/27 12:48:28;;;;;;;6.07;2.58;;;;;;;;;;5037159;28;20306;-67
2021/05/27 12:50:58;;;;;;;4.75;2.20;;;;;;;;;;5045789;28;20116;-67
2021/05/27 12:53:25;;;;;;;8.00;2.40;;;;;;;;;;5045451;28;20079;-67
2021/05/27 12:55:52;;;;;;;3.00;2.00;;;;;;;;;;5046633;28;20021;-67
2021/05/27 12:58:28;;;;;;;2.42;1.70;;;;;;;;;;5046166;28;20029;-67
2021/05/27 13:00:54;;;;;;;4.47;3.17;;;;;;;;;;5046870;28;20021;-67
2021/05/27 13:03:20;;;;;;;3.40;1.98;;;;;;;;;;5042341;28;20155;-67
2021/05/27 13:06:01;;;;;;;4.35;2.42;;;;;;;;;;5040415;28;20500;-68
2021/05/27 13:08:31;;;;;;;8.50;2.15;;;;;;;;;;5024964;28;20111;-67
2021/05/27 13:10:58;;;;;;;2.40;1.65;;;;;;;;;;5042685;28;20036;-67
2021/05/27 13:13:33;;;;;;;3.13;1.70;;;;;;;;;;5045364;28;20032;-67
2021/05/27 13:16:00;;;;;;;4.25;2.13;;;;;;;;;;5045206;28;20108;-67
2021/05/27 13:18:26;;;;;;;5.53;2.25;;;;;;;;;;5045107;28;20039;-67
2021/05/27 13:20:58;;;;;;;3.95;2.70;;;;;;;;;;5040391;28;20071;-67
2021/05/27 13:23:25;;;;;;;2.78;2.20;;;;;;;;;;5046285;28;20045;-67
2021/05/27 13:25:52;;;;;;;2.05;1.70;;;;;;;;;;5044189;28;20064;-67
2021/05/27 13:28:28;;;;;;;4.15;1.90;;;;;;;;;;5043937;28;20083;-67
2021/05/27 13:30:55;;;;;;;2.38;1.77;;;;;;;;;;5045499;28;20468;-67
2021/05/27 13:33:21;;;;;;;1.70;1.60;;;;;;;;;;5044782;28;20024;-67
2021/05/27 13:35:56;;;;;;;4.00;2.13;;;;;;;;;;5031991;28;20107;-67
2021/05/27 13:38:24;;;;;;;5.03;2.67;;;;;;;;;;5036861;28;20041;-68
2021/05/27 13:40:50;;;;;;;6.63;3.92;;;;;;;;;;5045225;28;20511;-67
2021/05/27 13:43:16;;;;;;;6.53;3.00;;;;;;;;;;5046102;28;20067;-67
2021/05/27 13:45:42;;;;;;;4.10;2.70;;;;;;;;;;5042130;28;20029;-67
2021/05/27 13:48:09;;;;;;;5.93;3.75;;;;;;;;;;5044634;28;20029;-67
2021/05/27 13:50:36;;;;;;;4.22;2.95;;;;;;;;;;5044606;28;20029;-67
2021/05/27 13:53:04;;;;;;;7.05;3.97;;;;;;;;;;5043720;28;20052;-67
2021/05/27 13:55:37;;;;;;;8.48;4.60;;;;;;;;;;5022877;28;20794;-68
2021/05/27 13:58:04;;;;;;;6.20;3.50;;;;;;;;;;5030229;28;20033;-67
2021/05/27 14:00:30;;;;;;;7.18;3.75;;;;;;;;;;5024963;28;20033;-67
2021/05/27 14:02:56;;;;;;;5.28;3.25;;;;;;;;;;5044441;28;20039;-67
2021/05/27 14:05:23;;;;;;;7.72;3.72;;;;;;;;;;5045852;28;20466;-68
2021/05/27 14:07:50;;;;;;;4.70;3.05;;;;;;;;;;5045493;28;20416;-68
2021/05/27 14:10:17;;;;;;;3.17;2.47;;;;;;;;;;5044117;28;20035;-68
2021/05/27 14:12:43;;;;;;;7.80;3.70;;;;;;;;;;5041329;28;20021;-68
2021/05/27 14:15:10;;;;;;;5.15;2.63;;;;;;;;;;5042131;28;20103;-68
2021/05/27 14:17:36;;;;;;;2.90;1.95;;;;;;;;;;5044609;28;20040;-68
2021/05/27 14:20:02;;;;;;;6.57;3.28;;;;;;;;;;5044696;28;20036;-68
2021/05/27 14:22:28;;;;;;;3.58;3.05;;;;;;;;;;5044772;28;20503;-68
2021/05/27 14:24:54;;;;;;;3.30;2.85;;;;;;;;;;5043201;28;20454;-67
2021/05/27 14:27:20;;;;;;;3.80;1.95;;;;;;;;;;5044338;28;20495;-67
2021/05/27 14:29:47;;;;;;;3.97;2.55;;;;;;;;;;5048713;28;20140;-67
2021/05/27 14:32:13;;;;;;;6.20;3.33;;;;;;;;;;5048574;28;20660;-67
2021/05/27 14:34:39;;;;;;;7.57;2.75;;;;;;;;;;5048693;28;20083;-67
2021/05/27 14:37:05;;;;;;;4.55;2.35;;;;;;;;;;5049873;28;20028;-67
2021/05/27 14:39:31;;;;;;;5.57;3.47;;;;;;;;;;5043310;28;20411;-69
2021/05/27 14:41:57;;;;;;;4.68;2.45;;;;;;;;;;5049016;28;20045;-68
2021/05/27 14:44:23;;;;;;;4.43;2.20;;;;;;;;;;5047503;28;20044;-69
2021/05/27 14:46:49;;;;;;;6.70;2.35;;;;;;;;;;5047799;28;20053;-67
2021/05/27 14:49:15;;;;;;;6.25;2.60;;;;;;;;;;5032341;28;20634;-67
2021/05/27 14:51:41;;;;;;;3.53;2.47;;;;;;;;;;5035228;28;20323;-67
2021/05/27 14:54:08;;;;;;;5.35;2.45;;;;;;;;;;5039485;28;20036;-67
2021/05/27 14:56:35;;;;;;;3.47;1.50;;;;;;;;;;5039017;28;20036;-67